Time;durP1;ratioP1;P1;durP2;ratioP2;P2;SDS_P1;SDS_P2;PMS_P1;PMS_P2;Temp;Humidity;BMP_temperature;BMP_pressure;BME280_temperature;BME280_humidity;BME280_pressure;Samples;Min_cycle;Max_cycle;Signal;HPM_P1;HPM_P2
2021/03/16 00:01:37;;;;;;;28.12;20.65;;;;;;;10.66;59.21;100130.55;1741545;82;21152;-45
2021/03/16 00:04:07;;;;;;;37.53;22.37;;;;;;;10.58;59.36;100132.55;1740060;82;21585;-45
2021/03/16 00:06:53;;;;;;;32.67;20.50;;;;;;;10.54;59.34;100133.55;1741508;82;21117;-45
2021/03/16 00:09:21;;;;;;;30.90;19.82;;;;;;;10.51;59.62;100134.48;1738495;82;21533;-45
2021/03/16 00:11:49;;;;;;;31.85;20.30;;;;;;;10.50;59.75;100129.34;1738346;82;21113;-45
2021/03/16 00:14:18;;;;;;;32.40;19.67;;;;;;;10.49;59.71;100119.82;1738201;82;21477;-45
2021/03/16 00:16:45;;;;;;;32.50;19.37;;;;;;;10.45;59.70;100109.11;1729864;82;21137;-45
2021/03/16 00:19:14;;;;;;;33.75;21.77;;;;;;;10.37;59.81;100103.30;1724634;82;21149;-45
2021/03/16 00:21:41;;;;;;;30.90;20.62;;;;;;;10.25;59.94;100101.08;1726268;82;21125;-45
2021/03/16 00:24:10;;;;;;;32.03;20.10;;;;;;;10.22;60.02;100110.30;1727558;82;21141;-45
2021/03/16 00:26:38;;;;;;;23.55;18.00;;;;;;;10.22;60.21;100107.70;1727410;82;21152;-45
2021/03/16 00:29:08;;;;;;;25.10;19.25;;;;;;;10.19;60.21;100101.27;1725657;82;21193;-45
2021/03/16 00:31:36;;;;;;;23.40;17.50;;;;;;;10.17;60.21;100099.17;1725774;82;21604;-45
2021/03/16 00:34:04;;;;;;;24.37;17.90;;;;;;;10.13;60.17;100081.52;1726709;82;21181;-45
2021/03/16 00:36:33;;;;;;;27.27;18.27;;;;;;;10.08;60.19;100078.61;1727588;82;21153;-45
2021/03/16 00:39:01;;;;;;;27.45;18.60;;;;;;;10.05;60.26;100077.42;1727457;82;21137;-45
2021/03/16 00:41:29;;;;;;;27.30;19.30;;;;;;;10.01;60.33;100077.11;1718460;82;21307;-45
2021/03/16 00:43:58;;;;;;;28.38;19.30;;;;;;;9.97;60.42;100071.59;1722802;82;21173;-45
2021/03/16 00:46:25;;;;;;;28.80;19.85;;;;;;;9.94;60.35;100075.58;1731883;82;21176;-44
2021/03/16 00:48:53;;;;;;;29.35;20.80;;;;;;;9.89;60.33;100074.87;1726402;81;21157;-45
2021/03/16 00:51:21;;;;;;;25.68;19.87;;;;;;;9.84;60.33;100073.27;1707103;83;21581;-45
2021/03/16 00:53:50;;;;;;;32.20;18.95;;;;;;;9.82;60.35;100084.16;1727605;82;21173;-45
2021/03/16 00:56:18;;;;;;;27.15;19.70;;;;;;;9.80;60.53;100083.34;1727419;82;21184;-45
2021/03/16 00:58:45;;;;;;;26.93;18.90;;;;;;;9.80;60.53;100088.55;1725709;82;21565;-45
2021/03/16 01:01:13;;;;;;;28.15;20.40;;;;;;;9.79;60.60;100084.67;1724382;82;21157;-45
2021/03/16 01:03:41;;;;;;;25.27;19.45;;;;;;;9.80;60.60;100088.55;1724130;82;21157;-45
2021/03/16 01:06:09;;;;;;;26.52;18.30;;;;;;;9.80;60.63;100085.95;1724809;82;21315;-44
2021/03/16 01:08:37;;;;;;;27.13;18.32;;;;;;;9.78;60.68;100073.45;1724242;81;21114;-45
2021/03/16 01:11:05;;;;;;;22.87;18.27;;;;;;;9.73;60.89;100064.92;1725858;82;21287;-45
2021/03/16 01:13:33;;;;;;;28.65;19.62;;;;;;;9.69;61.04;100062.02;1727474;82;21129;-45
2021/03/16 01:16:01;;;;;;;25.82;19.05;;;;;;;9.64;61.19;100055.26;1729847;80;21672;-45
2021/03/16 01:18:29;;;;;;;23.98;19.75;;;;;;;9.60;61.28;100058.37;1739734;82;21160;-45
2021/03/16 01:20:57;;;;;;;30.23;21.62;;;;;;;9.59;61.32;100053.23;1739186;82;21164;-45
2021/03/16 01:23:26;;;;;;;27.95;20.05;;;;;;;9.60;61.27;100040.66;1740521;82;21592;-45
2021/03/16 01:25:55;;;;;;;24.87;19.40;;;;;;;9.56;61.35;100033.37;1730605;82;21129;-44
2021/03/16 01:28:23;;;;;;;26.02;19.65;;;;;;;9.56;61.39;100032.08;1742817;82;21148;-45
2021/03/16 01:30:51;;;;;;;29.70;21.55;;;;;;;9.54;61.48;100036.47;1740757;82;21168;-45
2021/03/16 01:33:20;;;;;;;29.80;20.30;;;;;;;9.53;61.49;100045.17;1738295;82;21136;-45
2021/03/16 01:35:48;;;;;;;31.05;20.85;;;;;;;9.50;61.50;100042.65;1738230;82;21161;-45
2021/03/16 01:38:16;;;;;;;30.00;20.35;;;;;;;9.48;61.53;100041.84;1738093;82;21149;-45
2021/03/16 01:40:44;;;;;;;30.05;20.52;;;;;;;9.47;61.67;100054.44;1735360;81;21136;-45
2021/03/16 01:43:15;;;;;;;29.32;20.62;;;;;;;9.50;61.65;100049.62;1736018;82;21633;-45
2021/03/16 01:45:45;;;;;;;27.02;20.92;;;;;;;9.52;61.55;100051.25;1681872;84;21230;-45
2021/03/16 01:48:16;;;;;;;27.25;19.90;;;;;;;9.49;61.58;100051.35;1665009;84;21190;-45
2021/03/16 01:50:44;;;;;;;30.20;20.65;;;;;;;9.47;61.60;100057.48;1654559;85;21233;-45
2021/03/16 01:53:13;;;;;;;23.98;18.62;;;;;;;9.45;61.65;100049.73;1667623;85;21198;-45
2021/03/16 01:55:41;;;;;;;24.25;18.50;;;;;;;9.44;61.76;100042.83;1665403;85;21190;-45
2021/03/16 01:58:09;;;;;;;24.72;18.82;;;;;;;9.43;61.80;100041.14;1667407;84;21210;-45
2021/03/16 02:00:56;;;;;;;28.87;19.17;;;;;;;9.43;61.70;100047.63;1665563;85;21234;-44
2021/03/16 02:03:43;;;;;;;30.45;19.05;;;;;;;9.40;61.70;100036.02;1667851;85;21403;-45
2021/03/16 02:06:39;;;;;;;29.25;17.98;;;;;;;9.40;61.68;100026.93;1665133;85;21163;-45
2021/03/16 02:09:43;;;;;;;25.23;18.92;;;;;;;9.43;61.78;100019.51;1819699;79;23116;-45
2021/03/16 02:12:39;;;;;;;25.25;18.75;;;;;;;9.39;61.85;100026.55;1721978;83;21131;-46
2021/03/16 02:15:30;;;;;;;27.30;18.40;;;;;;;9.40;61.79;100013.95;1722264;83;21166;-47
2021/03/16 02:18:20;;;;;;;27.45;18.17;;;;;;;9.43;61.69;100023.41;1702046;83;21146;-46
2021/03/16 02:21:14;;;;;;;25.60;18.67;;;;;;;9.40;61.64;100025.63;1722146;83;21235;-46
2021/03/16 02:24:09;;;;;;;26.40;18.85;;;;;;;9.40;61.68;100030.83;1719895;83;21166;-46
2021/03/16 02:27:18;;;;;;;24.60;17.62;;;;;;;9.41;61.65;100019.56;1712270;83;21301;-46
2021/03/16 02:29:53;;;;;;;24.77;17.92;;;;;;;9.47;61.37;100019.38;1802113;79;22922;-46
2021/03/16 02:32:41;;;;;;;26.85;18.77;;;;;;;9.40;61.35;100028.23;1723670;83;21313;-46
2021/03/16 02:35:27;;;;;;;26.35;17.57;;;;;;;9.40;61.30;100028.23;1716916;83;21166;-46
2021/03/16 02:38:14;;;;;;;23.60;17.37;;;;;;;9.43;61.23;100028.16;1711700;83;21227;-46
2021/03/16 02:41:00;;;;;;;26.68;17.07;;;;;;;9.42;61.22;100021.25;1683902;83;21205;-46
2021/03/16 02:43:47;;;;;;;25.95;17.00;;;;;;;9.41;61.17;100016.11;1703205;83;21186;-45
2021/03/16 02:46:33;;;;;;;25.10;16.37;;;;;;;9.38;61.27;100018.77;1701256;83;21173;-44
2021/03/16 02:49:20;;;;;;;20.50;16.32;;;;;;;9.36;61.33;100014.94;1702657;83;21190;-45
2021/03/16 02:52:06;;;;;;;21.27;16.12;;;;;;;9.34;61.45;100025.81;1702996;83;21195;-45
2021/03/16 02:54:52;;;;;;;21.45;16.12;;;;;;;9.34;61.46;100027.11;1726671;83;21188;-44
2021/03/16 02:57:38;;;;;;;19.98;15.63;;;;;;;9.33;61.49;100024.13;1698983;83;21552;-45
2021/03/16 03:00:25;;;;;;;23.00;15.95;;;;;;;9.30;61.39;100028.09;1715157;83;21166;-45
2021/03/16 03:03:12;;;;;;;21.40;15.03;;;;;;;9.31;61.34;100024.61;1715101;83;21754;-45
2021/03/16 03:05:58;;;;;;;21.77;14.45;;;;;;;9.30;61.29;100026.79;1699513;83;21159;-45
2021/03/16 03:08:47;;;;;;;21.68;15.20;;;;;;;9.28;61.43;100028.58;1727944;83;21247;-45
2021/03/16 03:11:34;;;;;;;19.87;15.15;;;;;;;9.25;61.46;100028.68;1727948;83;21161;-45
2021/03/16 03:14:20;;;;;;;19.82;14.05;;;;;;;9.24;61.55;100029.56;1721981;83;21170;-45
2021/03/16 03:17:06;;;;;;;22.13;14.60;;;;;;;9.20;61.73;100033.13;1729478;83;21211;-45
2021/03/16 03:19:53;;;;;;;17.98;13.98;;;;;;;9.16;61.88;100026.33;1724914;83;21149;-45
2021/03/16 03:22:44;;;;;;;25.23;14.95;;;;;;;9.15;61.95;100028.97;1717519;83;21308;-44
2021/03/16 03:25:34;;;;;;;20.90;13.85;;;;;;;9.15;62.00;100031.09;1722335;83;22021;-45
2021/03/16 03:28:24;;;;;;;20.75;14.28;;;;;;;9.14;61.89;100022.92;1627894;87;21354;-45
2021/03/16 03:31:10;;;;;;;19.15;13.20;;;;;;;9.13;61.92;100021.20;1624265;88;21346;-45
2021/03/16 03:33:56;;;;;;;20.43;13.03;;;;;;;9.13;61.98;100015.19;1655935;86;21324;-45
2021/03/16 03:36:42;;;;;;;19.35;13.83;;;;;;;9.10;62.09;99992.76;1656910;86;21395;-45
2021/03/16 03:39:31;;;;;;;17.23;12.58;;;;;;;9.08;62.08;100003.63;1621655;88;21178;-45
2021/03/16 03:42:19;;;;;;;19.50;13.13;;;;;;;9.09;62.09;100001.89;1623917;88;21170;-45
2021/03/16 03:45:07;;;;;;;22.67;13.58;;;;;;;9.08;62.13;99998.88;1623782;88;21202;-44
2021/03/16 03:47:59;;;;;;;18.07;12.73;;;;;;;9.07;62.29;100008.40;1624021;88;21214;-45
2021/03/16 03:50:45;;;;;;;19.05;13.10;;;;;;;9.07;62.29;99990.23;1619321;88;21154;-44
2021/03/16 03:53:31;;;;;;;18.32;12.25;;;;;;;9.08;62.27;100004.92;1602263;88;21194;-44
2021/03/16 03:56:17;;;;;;;16.52;11.83;;;;;;;9.12;62.11;100016.92;1621207;88;21214;-45
2021/03/16 03:59:04;;;;;;;16.05;11.65;;;;;;;9.12;62.16;100000.05;1623846;88;21267;-45
2021/03/16 04:01:51;;;;;;;15.68;12.28;;;;;;;9.11;62.13;99989.72;1623852;88;21398;-45
2021/03/16 04:04:38;;;;;;;19.90;12.28;;;;;;;9.08;62.20;99994.55;1623654;88;22048;-45
2021/03/16 04:07:25;;;;;;;17.12;11.73;;;;;;;9.07;62.15;99988.94;1624097;88;21202;-45
2021/03/16 04:10:13;;;;;;;17.12;12.37;;;;;;;9.04;62.20;99985.14;1604091;88;21203;-45
2021/03/16 04:13:00;;;;;;;21.00;12.35;;;;;;;9.04;62.28;99983.84;1623867;88;21348;-44
2021/03/16 04:15:47;;;;;;;16.42;11.60;;;;;;;9.03;62.35;99984.72;1593891;88;21682;-45
2021/03/16 04:18:33;;;;;;;14.45;10.98;;;;;;;9.04;62.37;99986.44;1620146;88;21202;-45
2021/03/16 04:21:20;;;;;;;22.80;12.45;;;;;;;9.02;62.37;99994.72;1620416;88;21246;-45
2021/03/16 04:24:07;;;;;;;14.35;10.60;;;;;;;9.02;62.42;99999.91;1644242;82;21185;-45
2021/03/16 04:26:53;;;;;;;15.35;10.60;;;;;;;9.01;62.48;100002.08;1711371;84;21598;-44
2021/03/16 04:29:40;;;;;;;17.05;12.03;;;;;;;9.02;62.58;100015.48;1765647;80;21211;-45
2021/03/16 04:32:26;;;;;;;15.75;10.58;;;;;;;9.03;62.72;100021.05;1773676;80;21148;-44
2021/03/16 04:35:13;;;;;;;15.28;10.05;;;;;;;9.08;62.72;100021.80;1763517;80;21564;-44
2021/03/16 04:38:00;;;;;;;17.15;10.13;;;;;;;9.12;62.59;100023.41;1771173;80;21581;-45
2021/03/16 04:40:46;;;;;;;18.35;10.90;;;;;;;9.16;62.59;100014.64;1716263;83;21163;-45
2021/03/16 04:43:33;;;;;;;15.23;10.20;;;;;;;9.18;62.62;100011.56;1787220;80;21156;-44
2021/03/16 04:46:20;;;;;;;14.18;9.93;;;;;;;9.20;62.51;100008.47;1716288;83;21198;-45
2021/03/16 04:49:06;;;;;;;12.68;9.53;;;;;;;9.22;62.48;99996.30;1764829;80;21149;-45
2021/03/16 04:51:53;;;;;;;14.05;9.68;;;;;;;9.24;62.33;99993.22;1779991;80;21132;-45
2021/03/16 04:54:39;;;;;;;18.40;10.82;;;;;;;9.25;62.28;99987.15;1733471;82;21180;-45
2021/03/16 04:57:25;;;;;;;17.92;9.88;;;;;;;9.24;62.37;99995.81;1768666;80;21443;-45
2021/03/16 05:00:13;;;;;;;15.40;10.40;;;;;;;9.25;62.52;100009.21;1778068;80;21156;-45
2021/03/16 05:03:00;;;;;;;13.28;9.78;;;;;;;9.28;62.50;100007.81;1765127;80;21148;-45
2021/03/16 05:05:47;;;;;;;14.38;9.35;;;;;;;9.31;62.48;100005.14;1775334;80;21163;-45
2021/03/16 05:08:33;;;;;;;15.25;10.13;;;;;;;9.33;62.38;100005.95;1774944;80;21145;-45
2021/03/16 05:11:20;;;;;;;17.10;9.95;;;;;;;9.35;62.44;99998.97;1779866;80;21109;-45
2021/03/16 05:14:07;;;;;;;14.60;10.48;;;;;;;9.40;62.48;99994.91;1735539;82;21134;-45
2021/03/16 05:16:54;;;;;;;13.98;10.80;;;;;;;9.42;62.34;99990.09;1735373;82;21158;-45
2021/03/16 05:19:40;;;;;;;14.03;10.10;;;;;;;9.42;62.34;99987.48;1784854;80;21141;-44
2021/03/16 05:22:26;;;;;;;18.95;10.90;;;;;;;9.42;62.33;99979.70;1716837;83;21183;-45
2021/03/16 05:25:14;;;;;;;15.58;9.68;;;;;;;9.42;62.42;99990.52;1772417;80;21152;-45
2021/03/16 05:28:00;;;;;;;11.73;9.23;;;;;;;9.45;62.46;99990.02;1736426;82;21194;-45
2021/03/16 05:30:47;;;;;;;13.30;9.78;;;;;;;9.51;62.22;99989.83;1739561;82;21163;-45
2021/03/16 05:33:33;;;;;;;11.78;9.50;;;;;;;9.56;62.09;99986.63;1740766;82;21691;-45
2021/03/16 05:36:19;;;;;;;13.32;10.08;;;;;;;9.54;62.03;99979.81;1741156;82;21632;-45
2021/03/16 05:39:06;;;;;;;14.43;10.53;;;;;;;9.52;62.15;99972.03;1741335;81;21152;-45
2021/03/16 05:41:52;;;;;;;11.60;9.08;;;;;;;9.51;62.22;99963.86;1736690;82;21163;-45
2021/03/16 05:44:39;;;;;;;14.73;9.63;;;;;;;9.53;62.24;99950.38;1729639;81;21164;-45
2021/03/16 05:47:27;;;;;;;17.60;10.50;;;;;;;9.54;62.11;99945.58;1704906;82;21156;-45
2021/03/16 05:50:15;;;;;;;12.15;9.35;;;;;;;9.54;62.17;99946.05;1739353;82;21179;-45
2021/03/16 05:53:04;;;;;;;14.20;9.75;;;;;;;9.53;62.28;99954.28;1738295;82;21137;-45
2021/03/16 05:55:51;;;;;;;13.60;9.38;;;;;;;9.56;62.37;99951.57;1738048;82;21184;-45
2021/03/16 05:58:37;;;;;;;14.83;9.15;;;;;;;9.60;62.31;99949.28;1737993;82;21168;-45
2021/03/16 06:01:24;;;;;;;17.32;10.25;;;;;;;9.62;62.37;99941.47;1726333;82;21140;-45
2021/03/16 06:04:11;;;;;;;14.58;10.13;;;;;;;9.63;62.31;99937.52;1740106;82;21200;-45
2021/03/16 06:06:57;;;;;;;13.20;10.05;;;;;;;9.64;62.29;99949.59;1741251;82;21168;-45
2021/03/16 06:09:45;;;;;;;14.00;9.58;;;;;;;9.65;62.29;99966.89;1740969;82;21184;-45
2021/03/16 06:12:34;;;;;;;10.65;8.68;;;;;;;9.66;62.08;99958.22;1741304;82;21153;-45
2021/03/16 06:15:22;;;;;;;11.80;9.48;;;;;;;9.68;62.00;99953.82;1738800;82;21164;-45
2021/03/16 06:18:14;;;;;;;15.10;9.90;;;;;;;9.70;61.92;99939.04;1737203;82;21533;-45
2021/03/16 06:21:04;;;;;;;13.40;9.75;;;;;;;9.69;61.75;99939.92;1714634;82;21121;-45
2021/03/16 06:23:56;;;;;;;16.05;10.32;;;;;;;9.68;61.77;99934.34;1738777;82;21180;-45
2021/03/16 06:26:48;;;;;;;13.45;9.33;;;;;;;9.70;61.60;99931.25;1635755;87;21628;-45
2021/03/16 06:29:41;;;;;;;15.43;9.63;;;;;;;9.68;61.60;99929.59;1616302;87;21224;-45
2021/03/16 06:32:36;;;;;;;15.80;9.90;;;;;;;9.67;61.71;99920.94;1629367;87;21230;-45
2021/03/16 06:35:11;;;;;;;15.00;9.58;;;;;;;9.72;61.81;99943.73;1771781;79;22754;-46
2021/03/16 06:38:06;;;;;;;13.35;9.78;;;;;;;9.71;61.65;99956.31;1736383;82;21120;-45
2021/03/16 06:40:40;;;;;;;14.83;10.45;;;;;;;9.77;61.59;99937.93;1778021;79;23606;-46
2021/03/16 06:43:26;;;;;;;12.98;9.20;;;;;;;9.76;61.49;99944.05;1737031;82;21153;-46
2021/03/16 06:46:12;;;;;;;12.63;9.98;;;;;;;9.77;61.27;99948.33;1727617;82;21600;-46
2021/03/16 06:48:59;;;;;;;13.10;9.88;;;;;;;9.80;60.90;99950.84;1738656;81;21306;-46
2021/03/16 06:51:46;;;;;;;18.70;10.93;;;;;;;9.85;60.53;99945.47;1738611;82;21144;-46
2021/03/16 06:54:32;;;;;;;16.17;10.25;;;;;;;9.90;60.08;99950.53;1746096;82;21161;-45
2021/03/16 06:57:25;;;;;;;17.27;11.57;;;;;;;9.94;59.74;99930.05;1747726;82;21132;-46
2021/03/16 07:00:15;;;;;;;16.37;10.95;;;;;;;9.95;59.44;99922.66;1747735;82;21144;-46
2021/03/16 07:03:15;;;;;;;12.80;9.78;;;;;;;9.95;59.66;99933.92;1736525;82;21317;-46
2021/03/16 07:06:16;;;;;;;12.78;10.00;;;;;;;9.99;59.65;99942.45;1676733;84;21188;-46
2021/03/16 07:09:03;;;;;;;13.55;10.38;;;;;;;10.05;59.69;99937.06;1675350;85;21343;-45
2021/03/16 07:11:51;;;;;;;14.75;9.98;;;;;;;10.04;59.82;99930.14;1670881;85;21184;-46
2021/03/16 07:14:37;;;;;;;13.62;9.78;;;;;;;10.00;60.11;99929.41;1675800;85;21326;-46
2021/03/16 07:17:23;;;;;;;12.35;9.30;;;;;;;10.02;60.12;99922.41;1664038;85;21156;-46
2021/03/16 07:20:11;;;;;;;14.58;9.70;;;;;;;10.03;59.99;99917.63;1669265;85;21188;-46
2021/03/16 07:22:58;;;;;;;14.75;10.65;;;;;;;10.05;60.01;99917.56;1669479;85;21322;-46
2021/03/16 07:25:44;;;;;;;15.38;9.90;;;;;;;10.08;59.91;99919.61;1667963;85;21573;-46
2021/03/16 07:28:31;;;;;;;13.20;9.70;;;;;;;10.16;59.81;99916.81;1672570;85;21597;-46
2021/03/16 07:31:18;;;;;;;13.45;10.40;;;;;;;10.28;59.66;99902.09;1673553;85;21168;-46
2021/03/16 07:34:08;;;;;;;15.50;10.98;;;;;;;10.34;59.03;99887.58;1673830;85;21180;-46
2021/03/16 07:36:55;;;;;;;12.98;10.60;;;;;;;10.39;58.71;99884.35;1673563;85;21185;-46
2021/03/16 07:39:42;;;;;;;15.23;11.53;;;;;;;10.50;58.43;99883.54;1655110;85;21176;-46
2021/03/16 07:42:28;;;;;;;18.45;11.73;;;;;;;10.59;57.84;99896.23;1667821;85;21176;-46
2021/03/16 07:45:30;;;;;;;16.52;11.68;;;;;;;10.69;57.40;99889.80;1672132;85;21188;-46
2021/03/16 07:48:18;;;;;;;18.90;11.70;;;;;;;10.77;57.35;99882.56;1664768;85;21180;-46
2021/03/16 07:51:21;;;;;;;16.12;11.73;;;;;;;10.86;57.08;99895.22;1664798;85;21206;-46
2021/03/16 07:54:03;;;;;;;15.63;11.78;;;;;;;10.99;57.03;99901.69;1801118;79;22585;-46
2021/03/16 07:57:00;;;;;;;19.57;13.48;;;;;;;11.01;56.85;99912.89;1723090;83;21182;-47
2021/03/16 07:59:59;;;;;;;16.95;12.60;;;;;;;11.06;56.42;99904.47;1723810;83;21312;-46
2021/03/16 08:02:52;;;;;;;16.85;13.15;;;;;;;11.03;56.52;99905.88;1722793;83;21124;-46
2021/03/16 08:05:46;;;;;;;17.10;14.55;;;;;;;10.99;56.33;99896.48;1704158;83;21150;-47
2021/03/16 08:08:42;;;;;;;16.42;13.13;;;;;;;10.94;56.23;99894.48;1726821;83;21164;-46
2021/03/16 08:11:42;;;;;;;17.55;13.30;;;;;;;10.88;56.53;99894.71;1726445;83;21174;-44
2021/03/16 08:14:30;;;;;;;20.03;14.50;;;;;;;10.90;56.75;99912.42;1725584;83;21136;-45
2021/03/16 08:17:31;;;;;;;22.82;15.00;;;;;;;10.97;56.61;99904.80;1744475;81;21129;-45
2021/03/16 08:20:28;;;;;;;18.75;15.13;;;;;;;10.97;56.07;99894.83;1723908;83;21227;-44
2021/03/16 08:23:14;;;;;;;18.50;15.35;;;;;;;10.89;56.16;99900.33;1737998;82;21228;-44
2021/03/16 08:26:01;;;;;;;16.00;14.00;;;;;;;10.84;56.27;99901.41;1715307;82;21611;-45
2021/03/16 08:28:49;;;;;;;17.73;13.45;;;;;;;10.80;56.49;99898.05;1735582;82;21569;-45
2021/03/16 08:31:38;;;;;;;18.40;15.23;;;;;;;10.82;56.62;99898.84;1738013;82;21180;-45
2021/03/16 08:34:28;;;;;;;24.07;16.27;;;;;;;10.77;56.53;99895.58;1723247;82;21171;-45
2021/03/16 08:37:27;;;;;;;21.82;15.60;;;;;;;10.69;56.70;99885.89;1752210;81;21782;-44
2021/03/16 08:40:23;;;;;;;20.68;15.80;;;;;;;10.61;56.89;99886.63;1712877;83;21741;-47
2021/03/16 08:43:10;;;;;;;23.00;16.10;;;;;;;10.54;56.97;99878.63;1753190;81;21152;-47
2021/03/16 08:45:57;;;;;;;17.85;15.15;;;;;;;10.45;57.30;99885.44;1725296;83;21348;-47
2021/03/16 08:48:45;;;;;;;19.62;15.15;;;;;;;10.36;57.49;99897.03;1738537;82;21163;-46
2021/03/16 08:51:33;;;;;;;21.90;15.03;;;;;;;10.32;57.76;99904.98;1735528;82;21298;-46
2021/03/16 08:54:25;;;;;;;21.02;15.00;;;;;;;10.30;57.98;99919.80;1743882;81;21129;-47
2021/03/16 08:57:23;;;;;;;19.75;14.55;;;;;;;10.32;58.03;99923.19;1739102;81;21172;-46
2021/03/16 09:00:12;;;;;;;20.40;15.00;;;;;;;10.32;58.22;99934.45;1723909;83;21230;-46
2021/03/16 09:02:58;;;;;;;19.25;14.50;;;;;;;10.34;58.25;99953.89;1740874;81;21226;-46
2021/03/16 09:05:45;;;;;;;17.25;13.78;;;;;;;10.38;58.39;99952.88;1698224;83;21168;-46
2021/03/16 09:08:31;;;;;;;23.22;15.10;;;;;;;10.46;58.38;99954.77;1722148;83;21307;-46
2021/03/16 09:11:30;;;;;;;17.82;13.68;;;;;;;10.52;58.22;99949.36;1710154;83;21199;-46
2021/03/16 09:14:18;;;;;;;15.00;12.43;;;;;;;10.56;58.11;99942.70;1658722;86;21212;-46
2021/03/16 09:17:04;;;;;;;18.37;13.55;;;;;;;10.60;58.07;99936.94;1667118;86;21149;-47
2021/03/16 09:19:51;;;;;;;19.05;14.38;;;;;;;10.62;57.93;99937.73;1647638;86;21214;-46
2021/03/16 09:22:38;;;;;;;20.97;13.75;;;;;;;10.64;58.08;99941.13;1667210;86;21180;-46
2021/03/16 09:25:33;;;;;;;20.80;13.90;;;;;;;10.67;57.96;99929.77;1667167;86;21180;-46
2021/03/16 09:28:22;;;;;;;16.20;11.85;;;;;;;10.74;58.05;99933.40;1667133;86;21216;-46
2021/03/16 09:31:07;;;;;;;18.73;12.85;;;;;;;10.85;57.97;99927.38;1662257;86;21201;-46
2021/03/16 09:33:55;;;;;;;18.55;13.35;;;;;;;10.94;57.66;99928.80;1663550;86;21323;-44
2021/03/16 09:36:41;;;;;;;16.10;12.93;;;;;;;10.97;57.35;99931.27;1665165;86;21353;-43
2021/03/16 09:39:28;;;;;;;16.70;13.62;;;;;;;10.94;57.26;99927.02;1666960;86;21204;-46
2021/03/16 09:42:06;;;;;;;19.80;14.25;;;;;;;10.96;57.15;99923.09;1792248;79;28076;-46
2021/03/16 09:44:39;;;;;;;18.57;12.90;;;;;;;10.90;57.22;99916.33;1762495;80;21203;-46
2021/03/16 09:47:18;;;;;;;20.97;12.68;;;;;;;10.93;57.10;99909.72;1771647;79;22726;-46
2021/03/16 09:49:46;;;;;;;16.48;12.88;;;;;;;10.85;57.27;99916.96;1735813;82;21181;-46
2021/03/16 09:52:15;;;;;;;17.52;12.25;;;;;;;10.83;57.42;99919.22;1741191;82;21141;-46
2021/03/16 09:54:44;;;;;;;15.05;12.18;;;;;;;10.84;57.59;99918.33;1741140;82;21184;-46
2021/03/16 09:57:15;;;;;;;16.32;12.25;;;;;;;10.86;57.61;99912.14;1739602;82;21176;-46
2021/03/16 09:59:44;;;;;;;20.43;12.30;;;;;;;10.85;57.54;99909.59;1731706;82;21729;-45
2021/03/16 10:02:13;;;;;;;23.55;12.85;;;;;;;10.84;57.50;99902.23;1737598;82;21113;-46
2021/03/16 10:04:50;;;;;;;16.05;11.53;;;;;;;10.85;57.31;99896.14;1737200;82;21291;-46
2021/03/16 10:07:27;;;;;;;16.20;11.83;;;;;;;10.87;57.30;99898.68;1736307;82;21184;-45
2021/03/16 10:10:10;;;;;;;14.80;11.57;;;;;;;10.92;57.37;99905.41;1659269;86;21259;-46
2021/03/16 10:13:04;;;;;;;20.65;12.10;;;;;;;11.02;57.23;99900.28;1805665;79;22930;-46
2021/03/16 10:15:35;;;;;;;20.43;11.85;;;;;;;11.01;57.21;99895.97;1697418;84;21141;-46
2021/03/16 10:18:06;;;;;;;20.72;13.25;;;;;;;11.03;57.08;99879.84;1730036;83;21148;-46
2021/03/16 10:20:39;;;;;;;22.07;11.90;;;;;;;11.03;57.07;99871.17;1699215;84;21201;-46
2021/03/16 10:23:12;;;;;;;18.73;12.50;;;;;;;11.03;57.07;99869.88;1729570;83;21198;-45
2021/03/16 10:25:42;;;;;;;17.20;11.33;;;;;;;11.00;57.17;99866.95;1698336;84;21202;-46
2021/03/16 10:28:13;;;;;;;17.02;11.97;;;;;;;11.00;57.34;99866.95;1699092;84;21185;-46
2021/03/16 10:30:44;;;;;;;17.35;11.43;;;;;;;11.02;57.29;99850.83;1709043;83;21122;-46
2021/03/16 10:33:13;;;;;;;21.48;12.95;;;;;;;11.05;57.21;99845.94;1729666;83;21197;-46
2021/03/16 10:35:42;;;;;;;14.90;11.25;;;;;;;11.05;57.25;99836.38;1729790;83;21166;-46
2021/03/16 10:38:10;;;;;;;20.30;11.43;;;;;;;11.06;57.11;99834.19;1729578;83;21152;-46
2021/03/16 10:40:38;;;;;;;15.38;11.00;;;;;;;11.06;57.06;99839.39;1729647;83;21685;-46
2021/03/16 10:43:06;;;;;;;17.82;11.55;;;;;;;11.10;57.07;99847.48;1685424;84;21652;-46
2021/03/16 10:45:34;;;;;;;20.95;11.57;;;;;;;11.09;57.24;99843.16;1695100;84;21666;-46
2021/03/16 10:48:04;;;;;;;17.42;11.05;;;;;;;11.09;57.20;99832.75;1723731;83;21155;-46
2021/03/16 10:50:31;;;;;;;20.70;11.80;;;;;;;11.08;57.20;99831.06;1699014;84;21173;-46
2021/03/16 10:53:00;;;;;;;27.93;12.05;;;;;;;11.05;57.17;99825.96;1713445;83;21740;-46
2021/03/16 10:55:27;;;;;;;17.37;10.88;;;;;;;11.01;57.22;99824.38;1729719;83;21572;-46
2021/03/16 10:57:55;;;;;;;17.12;10.98;;;;;;;10.97;57.36;99809.79;1729520;83;21312;-46
2021/03/16 11:00:24;;;;;;;16.10;11.33;;;;;;;10.94;57.79;99808.59;1699156;84;21629;-46
2021/03/16 11:02:53;;;;;;;15.88;10.98;;;;;;;10.92;58.27;99807.80;1729585;83;21171;-46
2021/03/16 11:05:22;;;;;;;18.25;10.72;;;;;;;10.91;58.81;99807.42;1729571;83;21337;-46
2021/03/16 11:07:50;;;;;;;13.98;10.53;;;;;;;10.91;59.07;99815.23;1699493;84;21235;-46
2021/03/16 11:10:18;;;;;;;15.15;10.55;;;;;;;10.91;59.14;99808.73;1729486;83;21174;-46
2021/03/16 11:12:47;;;;;;;16.40;10.80;;;;;;;10.91;59.36;99807.42;1738184;82;21644;-46
2021/03/16 11:15:17;;;;;;;24.02;11.55;;;;;;;10.91;59.32;99796.16;1776707;80;21137;-46
2021/03/16 11:17:45;;;;;;;17.77;11.18;;;;;;;10.88;59.40;99794.52;1770529;80;21109;-46
2021/03/16 11:20:15;;;;;;;15.00;11.18;;;;;;;10.91;59.55;99795.71;1777029;80;21580;-46
2021/03/16 11:22:43;;;;;;;17.73;12.40;;;;;;;10.91;59.46;99794.86;1773871;80;21196;-46
2021/03/16 11:25:13;;;;;;;21.60;13.20;;;;;;;10.88;59.36;99778.89;1774309;80;21196;-46
2021/03/16 11:27:40;;;;;;;16.82;12.00;;;;;;;10.89;59.33;99777.16;1771515;80;21144;-46
2021/03/16 11:30:10;;;;;;;14.90;10.78;;;;;;;10.89;59.20;99774.10;1771610;80;21105;-46
2021/03/16 11:32:37;;;;;;;16.85;11.05;;;;;;;10.90;59.07;99772.36;1781204;80;21311;-46
2021/03/16 11:35:24;;;;;;;13.88;10.00;;;;;;;10.89;59.03;99764.99;1775807;80;21125;-46
2021/03/16 11:38:10;;;;;;;16.27;11.15;;;;;;;10.89;58.92;99761.09;1777298;80;21129;-46
2021/03/16 11:40:57;;;;;;;18.57;10.60;;;;;;;10.86;58.72;99754.69;1776743;80;21184;-46
2021/03/16 11:43:43;;;;;;;15.35;9.93;;;;;;;10.84;58.74;99756.50;1765848;80;21290;-46
2021/03/16 11:46:30;;;;;;;17.65;9.95;;;;;;;10.84;58.95;99751.30;1764554;80;21200;-46
2021/03/16 11:49:17;;;;;;;19.52;10.70;;;;;;;10.82;59.08;99755.71;1730135;82;21137;-46
2021/03/16 11:52:04;;;;;;;24.43;13.45;;;;;;;10.84;59.11;99748.69;1705893;83;21172;-46
2021/03/16 11:54:50;;;;;;;23.07;13.95;;;;;;;10.86;59.08;99758.59;1708914;83;21173;-46
2021/03/16 11:57:37;;;;;;;18.87;12.45;;;;;;;10.89;58.99;99761.09;1773442;80;21173;-46
2021/03/16 12:00:23;;;;;;;18.40;10.45;;;;;;;10.94;58.93;99752.62;1759342;80;21137;-46
2021/03/16 12:03:10;;;;;;;19.35;11.30;;;;;;;10.97;58.94;99765.54;1765193;80;21599;-46
2021/03/16 12:05:56;;;;;;;15.95;10.30;;;;;;;10.99;58.82;99765.47;1767024;80;21148;-46
2021/03/16 12:08:43;;;;;;;16.07;10.15;;;;;;;10.99;58.83;99766.33;1716862;83;21170;-46
2021/03/16 12:11:30;;;;;;;14.95;9.50;;;;;;;11.00;58.85;99773.25;1774046;80;21649;-46
2021/03/16 12:14:16;;;;;;;17.32;9.40;;;;;;;11.00;58.77;99772.39;1741239;82;21460;-46
2021/03/16 12:17:02;;;;;;;16.87;9.78;;;;;;;11.01;58.72;99779.28;1710606;82;21156;-46
2021/03/16 12:19:49;;;;;;;18.12;9.45;;;;;;;11.00;58.81;99773.25;1710987;83;21176;-46
2021/03/16 12:22:37;;;;;;;16.48;9.40;;;;;;;10.99;58.91;99772.84;1715251;83;21144;-46
2021/03/16 12:25:23;;;;;;;14.95;9.40;;;;;;;10.99;59.08;99773.28;1710708;83;21177;-46
2021/03/16 12:28:10;;;;;;;19.87;9.75;;;;;;;10.99;59.12;99774.58;1712762;83;21192;-46